Time;durP1;ratioP1;P1;durP2;ratioP2;P2;SDS_P1;SDS_P2;PMS_P1;PMS_P2;Temp;Humidity;BMP_temperature;BMP_pressure;BME280_temperature;BME280_humidity;BME280_pressure;Samples;Min_cycle;Max_cycle;Signal;HPM_P1;HPM_P2
2023/07/28 00:02:05;;;;;;;1.35;1.25;;;21.40;65.10;;;;;;5036286;28;20044;-80
2023/07/28 00:04:30;;;;;;;1.30;1.20;;;21.40;65.10;;;;;;5035873;28;20037;-80
2023/07/28 00:06:56;;;;;;;1.30;1.20;;;21.30;65.10;;;;;;5053438;28;20488;-80
2023/07/28 00:09:23;;;;;;;1.40;1.30;;;21.40;65.20;;;;;;5035791;28;20124;-80
2023/07/28 00:11:49;;;;;;;1.40;1.30;;;21.40;65.20;;;;;;5052921;28;20047;-80
2023/07/28 00:14:14;;;;;;;1.50;1.40;;;21.30;65.10;;;;;;5036061;28;20508;-80
2023/07/28 00:16:40;;;;;;;1.63;1.52;;;21.40;65.20;;;;;;5035277;28;20053;-79
2023/07/28 00:19:06;;;;;;;1.45;1.35;;;21.30;65.10;;;;;;5020148;28;20461;-80
2023/07/28 00:21:32;;;;;;;1.40;1.30;;;21.30;65.10;;;;;;5052038;28;20079;-80
2023/07/28 00:23:57;;;;;;;1.20;1.10;;;21.30;65.20;;;;;;5035636;28;20127;-79
2023/07/28 00:26:23;;;;;;;1.40;1.30;;;21.30;65.10;;;;;;5035581;28;20068;-79
2023/07/28 00:28:49;;;;;;;1.38;1.27;;;21.30;65.10;;;;;;5036338;28;20132;-80
2023/07/28 00:31:15;;;;;;;1.40;1.30;;;21.30;65.10;;;;;;5035536;28;20040;-80
2023/07/28 00:33:42;;;;;;;1.60;1.50;;;21.30;65.10;;;;;;5051827;28;20052;-80
2023/07/28 00:36:07;;;;;;;1.40;1.30;;;21.30;65.10;;;;;;5052026;28;20032;-80
2023/07/28 00:38:33;;;;;;;1.38;1.27;;;21.30;65.10;;;;;;5035584;28;20029;-80
2023/07/28 00:40:59;;;;;;;1.40;1.30;;;21.30;65.00;;;;;;5052154;28;20051;-80
2023/07/28 00:43:25;;;;;;;1.55;1.45;;;21.30;65.00;;;;;;5035681;28;20041;-79
2023/07/28 00:45:51;;;;;;;1.40;1.30;;;21.30;65.00;;;;;;5052945;28;20122;-79
2023/07/28 00:48:17;;;;;;;1.40;1.30;;;21.30;65.00;;;;;;5039204;28;20033;-80
2023/07/28 00:50:48;;;;;;;1.38;1.27;;;21.30;65.00;;;;;;5039670;28;20029;-80
2023/07/28 00:53:15;;;;;;;1.40;1.30;;;21.30;65.10;;;;;;5056312;28;20101;-80
2023/07/28 00:55:41;;;;;;;1.50;1.40;;;21.30;65.00;;;;;;5055830;28;20052;-80
2023/07/28 00:58:09;;;;;;;1.25;1.20;;;21.30;65.00;;;;;;5055924;28;20033;-79
2023/07/28 01:00:34;;;;;;;1.30;1.20;;;21.30;65.00;;;;;;5055566;28;20056;-79
2023/07/28 01:03:01;;;;;;;1.80;1.60;;;21.30;65.10;;;;;;5039238;28;20063;-80
2023/07/28 01:05:39;;;;;;;1.40;1.30;;;21.30;65.10;;;;;;5039546;28;20477;-80
2023/07/28 01:08:19;;;;;;;1.50;1.40;;;21.30;65.10;;;;;;5056610;28;20033;-79
2023/07/28 01:10:44;;;;;;;1.30;1.20;;;21.30;65.10;;;;;;5056638;28;20029;-80
2023/07/28 01:13:10;;;;;;;1.35;1.25;;;21.30;65.00;;;;;;5039627;28;20376;-80
2023/07/28 01:15:36;;;;;;;1.60;1.40;;;21.30;64.90;;;;;;5005835;28;20049;-79
2023/07/28 01:18:02;;;;;;;1.40;1.30;;;21.30;65.00;;;;;;5055955;28;20449;-80
2023/07/28 01:20:31;;;;;;;1.50;1.40;;;21.30;64.90;;;;;;5038915;28;20029;-80
2023/07/28 01:23:12;;;;;;;1.30;1.20;;;21.30;64.90;;;;;;5055767;28;20032;-79
2023/07/28 01:26:07;;;;;;;1.38;1.27;;;21.30;65.10;;;;;;5039119;28;20044;-80
2023/07/28 01:28:34;;;;;;;1.40;1.30;;;21.30;65.10;;;;;;5055143;28;20029;-80
2023/07/28 01:31:05;;;;;;;1.52;1.42;;;21.30;64.90;;;;;;5038688;28;20436;-80
2023/07/28 01:33:31;;;;;;;1.92;1.73;;;21.30;65.00;;;;;;5055174;28;20033;-79
2023/07/28 01:35:58;;;;;;;1.73;1.63;;;21.20;65.00;;;;;;5039416;28;20370;-79
2023/07/28 01:38:24;;;;;;;1.60;1.50;;;21.20;65.00;;;;;;5055357;28;20025;-80
2023/07/28 01:40:50;;;;;;;1.55;1.45;;;21.20;65.00;;;;;;5055793;28;20052;-80
2023/07/28 01:43:16;;;;;;;1.40;1.30;;;21.20;65.00;;;;;;5038449;28;20504;-80
2023/07/28 01:45:42;;;;;;;1.33;1.23;;;21.30;65.00;;;;;;5039159;28;20040;-79
2023/07/28 01:48:09;;;;;;;1.58;1.48;;;21.30;65.00;;;;;;5055057;28;20040;-80
2023/07/28 01:50:35;;;;;;;1.63;1.52;;;21.20;65.00;;;;;;5055128;28;20115;-80
2023/07/28 01:53:01;;;;;;;1.67;1.58;;;21.30;65.00;;;;;;5055037;28;20033;-80
2023/07/28 01:55:27;;;;;;;1.60;1.50;;;21.30;65.00;;;;;;5038340;28;20486;-79
2023/07/28 01:57:58;;;;;;;1.50;1.40;;;21.20;64.90;;;;;;5037962;28;20043;-79
2023/07/28 02:00:24;;;;;;;1.50;1.33;;;21.20;65.00;;;;;;5038266;28;20052;-79
2023/07/28 02:02:51;;;;;;;1.60;1.50;;;21.20;64.90;;;;;;5055482;28;20041;-80
2023/07/28 02:05:17;;;;;;;1.30;1.20;;;21.20;64.90;;;;;;5038319;28;20037;-79
2023/07/28 02:07:43;;;;;;;1.40;1.30;;;21.20;64.90;;;;;;5054898;28;20040;-80
2023/07/28 02:10:10;;;;;;;2.70;1.60;;;21.20;64.90;;;;;;5054929;28;20048;-80
2023/07/28 02:12:36;;;;;;;1.70;1.60;;;21.30;65.00;;;;;;5021759;28;20040;-80
2023/07/28 02:15:03;;;;;;;1.50;1.40;;;21.20;64.90;;;;;;5054919;28;20037;-81
2023/07/28 02:17:28;;;;;;;1.80;1.52;;;21.20;64.90;;;;;;5057749;28;20086;-80
2023/07/28 02:19:54;;;;;;;1.40;1.27;;;21.20;64.90;;;;;;5058475;28;20453;-79
2023/07/28 02:22:20;;;;;;;1.50;1.40;;;21.20;64.90;;;;;;5008372;28;20043;-79
2023/07/28 02:24:46;;;;;;;1.70;1.60;;;21.20;64.90;;;;;;5041179;28;20472;-79
2023/07/28 02:27:11;;;;;;;1.65;1.55;;;21.20;64.90;;;;;;5075505;28;20388;-81
2023/07/28 02:29:37;;;;;;;2.28;1.73;;;21.20;64.90;;;;;;5041014;28;20388;-79
2023/07/28 02:32:03;;;;;;;1.83;1.58;;;21.20;64.90;;;;;;5041058;28;20032;-81
2023/07/28 02:34:29;;;;;;;1.65;1.50;;;21.20;64.90;;;;;;5041633;28;20044;-79
2023/07/28 02:36:54;;;;;;;1.98;1.70;;;21.20;64.90;;;;;;5041122;28;20036;-79
2023/07/28 02:39:21;;;;;;;1.83;1.42;;;21.20;64.90;;;;;;5040769;28;20028;-79
2023/07/28 02:41:47;;;;;;;1.75;1.50;;;21.20;64.90;;;;;;5057647;28;20032;-79
2023/07/28 02:44:12;;;;;;;1.58;1.48;;;21.20;64.90;;;;;;5040669;28;20550;-80
2023/07/28 02:46:38;;;;;;;1.67;1.58;;;21.20;64.90;;;;;;5040987;28;20028;-79
2023/07/28 02:49:04;;;;;;;1.45;1.35;;;21.20;64.90;;;;;;5057282;28;20391;-81
2023/07/28 02:51:30;;;;;;;1.80;1.70;;;21.20;64.90;;;;;;5057041;28;20020;-79
2023/07/28 02:53:56;;;;;;;1.65;1.50;;;21.20;64.90;;;;;;5025241;28;20052;-79
2023/07/28 02:56:22;;;;;;;2.03;1.80;;;21.20;64.80;;;;;;5040567;28;20052;-79
2023/07/28 02:58:49;;;;;;;2.03;1.75;;;21.20;64.90;;;;;;5023918;28;20043;-79
2023/07/28 03:01:14;;;;;;;2.03;1.58;;;21.20;64.80;;;;;;5057766;28;20077;-80
2023/07/28 03:03:40;;;;;;;1.83;1.63;;;21.20;64.80;;;;;;5040231;28;20033;-79
2023/07/28 03:06:06;;;;;;;2.17;1.77;;;21.20;64.80;;;;;;5040044;28;20462;-79
2023/07/28 03:08:34;;;;;;;2.38;2.00;;;21.20;64.80;;;;;;5073865;28;20033;-79
2023/07/28 03:11:23;;;;;;;2.08;1.85;;;21.20;64.90;;;;;;5067286;28;20446;-79
2023/07/28 03:13:49;;;;;;;1.98;1.75;;;21.20;64.80;;;;;;5040359;28;20044;-79
2023/07/28 03:16:15;;;;;;;2.75;2.10;;;21.20;65.50;;;;;;5036561;28;20049;-79
2023/07/28 03:18:40;;;;;;;2.25;1.80;;;21.20;64.80;;;;;;5036748;28;20040;-80
2023/07/28 03:21:08;;;;;;;2.75;2.05;;;21.20;64.80;;;;;;5053177;28;20039;-79
2023/07/28 03:23:34;;;;;;;2.17;1.80;;;21.20;64.80;;;;;;5053357;28;20029;-80
2023/07/28 03:26:00;;;;;;;2.45;1.90;;;21.20;64.80;;;;;;5036550;28;20044;-79
2023/07/28 03:28:25;;;;;;;2.60;2.00;;;21.20;64.80;;;;;;5036476;28;20059;-80
2023/07/28 03:30:51;;;;;;;2.42;1.88;;;21.20;64.80;;;;;;5036506;28;20040;-80
2023/07/28 03:33:17;;;;;;;2.58;1.80;;;21.20;64.80;;;;;;5036406;28;20033;-80
2023/07/28 03:35:43;;;;;;;2.20;1.85;;;21.20;64.80;;;;;;5036328;28;20032;-79
2023/07/28 03:38:10;;;;;;;2.75;2.10;;;21.20;64.80;;;;;;5036523;28;20036;-79
2023/07/28 03:40:38;;;;;;;3.28;2.13;;;21.20;64.80;;;;;;5053282;28;20055;-79
2023/07/28 03:43:03;;;;;;;1.92;1.63;;;21.20;64.80;;;;;;5052550;28;20036;-80
2023/07/28 03:45:29;;;;;;;2.05;1.75;;;21.20;64.80;;;;;;5036543;28;20044;-80
2023/07/28 03:47:55;;;;;;;2.55;1.88;;;21.20;64.80;;;;;;5004144;28;20064;-79
2023/07/28 03:50:21;;;;;;;2.30;2.00;;;21.20;64.80;;;;;;5036285;28;20048;-79
2023/07/28 03:52:46;;;;;;;2.45;2.03;;;21.20;64.80;;;;;;5036417;28;20182;-79
2023/07/28 03:55:13;;;;;;;2.38;1.88;;;21.20;64.80;;;;;;5036415;28;20031;-80
2023/07/28 03:57:39;;;;;;;2.88;2.45;;;21.20;64.80;;;;;;5036034;28;20410;-79
2023/07/28 04:00:06;;;;;;;2.83;2.00;;;21.20;64.80;;;;;;5035964;28;20033;-79
2023/07/28 04:02:38;;;;;;;3.00;2.13;;;21.20;64.80;;;;;;5052757;28;20051;-79
2023/07/28 04:05:04;;;;;;;3.55;2.25;;;21.20;64.80;;;;;;5053088;28;20116;-79
2023/07/28 04:07:30;;;;;;;3.63;2.42;;;21.20;64.70;;;;;;5036117;28;20049;-79
2023/07/28 04:09:55;;;;;;;2.72;2.08;;;21.20;64.80;;;;;;5019389;28;20025;-79
2023/07/28 04:12:21;;;;;;;3.15;2.38;;;21.20;64.80;;;;;;5053080;28;20037;-80
2023/07/28 04:14:47;;;;;;;4.63;2.70;;;21.20;64.80;;;;;;5036325;28;20041;-80
2023/07/28 04:17:13;;;;;;;3.35;2.17;;;21.20;64.80;;;;;;5035552;28;20056;-80
2023/07/28 04:19:38;;;;;;;3.13;2.30;;;21.20;64.80;;;;;;5002614;28;20069;-80
2023/07/28 04:22:05;;;;;;;3.40;2.30;;;21.20;64.80;;;;;;5035453;28;20439;-80
2023/07/28 04:24:32;;;;;;;3.75;2.30;;;21.20;64.80;;;;;;5035912;28;20385;-79
2023/07/28 04:26:58;;;;;;;3.10;2.42;;;21.10;64.70;;;;;;5035404;28;20033;-80
2023/07/28 04:29:24;;;;;;;3.20;2.30;;;21.20;64.80;;;;;;5035611;28;20036;-78
2023/07/28 04:31:50;;;;;;;3.38;2.38;;;21.20;64.80;;;;;;5035175;28;20033;-81
2023/07/28 04:34:21;;;;;;;3.72;2.72;;;21.20;64.80;;;;;;5036577;28;20115;-80
2023/07/28 04:37:05;;;;;;;3.25;2.33;;;21.20;64.80;;;;;;5038838;28;20533;-80
2023/07/28 04:39:45;;;;;;;3.05;2.40;;;21.20;64.80;;;;;;5038234;28;20107;-78
2023/07/28 04:42:12;;;;;;;3.55;2.60;;;21.10;64.80;;;;;;5035894;28;20041;-78
2023/07/28 04:44:42;;;;;;;3.13;2.33;;;21.20;64.80;;;;;;5036151;28;20542;-77
2023/07/28 04:47:07;;;;;;;4.05;2.83;;;21.20;64.90;;;;;;5036264;28;20033;-78
2023/07/28 04:49:33;;;;;;;3.80;2.67;;;21.20;64.90;;;;;;5036064;28;20364;-77
2023/07/28 04:52:08;;;;;;;5.00;3.10;;;21.10;64.80;;;;;;5052203;28;20106;-79
2023/07/28 04:54:57;;;;;;;3.67;2.70;;;21.20;64.80;;;;;;5042690;28;20041;-78
2023/07/28 04:57:23;;;;;;;3.78;2.83;;;21.10;64.70;;;;;;5002758;28;20075;-81
2023/07/28 04:59:48;;;;;;;3.00;2.13;;;21.20;64.90;;;;;;5035190;28;20103;-79
2023/07/28 05:02:14;;;;;;;4.28;2.95;;;21.20;64.90;;;;;;5051289;28;20039;-79
2023/07/28 05:04:40;;;;;;;4.50;3.05;;;21.20;64.80;;;;;;5034944;28;20080;-79
2023/07/28 05:07:06;;;;;;;3.67;2.63;;;21.20;64.80;;;;;;5018731;28;20025;-78
2023/07/28 05:09:32;;;;;;;4.25;2.65;;;21.20;64.80;;;;;;5035453;28;20580;-79
2023/07/28 05:11:58;;;;;;;4.00;2.72;;;21.20;64.80;;;;;;5051854;28;20068;-77
2023/07/28 05:14:24;;;;;;;3.33;2.45;;;21.20;64.80;;;;;;5051775;28;20044;-78
2023/07/28 05:16:50;;;;;;;3.97;2.80;;;21.20;64.80;;;;;;5051603;28;20048;-77
2023/07/28 05:19:33;;;;;;;3.25;2.60;;;21.20;64.80;;;;;;5038051;28;20040;-77
2023/07/28 05:22:01;;;;;;;4.15;2.90;;;21.20;64.70;;;;;;5053417;28;20045;-78
2023/07/28 05:24:45;;;;;;;3.75;2.58;;;21.20;64.70;;;;;;5037677;28;20132;-78
2023/07/28 05:27:11;;;;;;;4.68;3.00;;;21.20;64.70;;;;;;5034844;28;20488;-76
2023/07/28 05:29:37;;;;;;;4.13;2.75;;;21.20;64.80;;;;;;5035189;28;20075;-78
2023/07/28 05:32:06;;;;;;;4.07;2.55;;;21.10;64.70;;;;;;5052416;28;20040;-77
2023/07/28 05:34:42;;;;;;;4.10;2.83;;;21.10;64.70;;;;;;5008720;28;20040;-78
2023/07/28 05:37:08;;;;;;;3.95;2.90;;;21.20;64.80;;;;;;5055364;28;20028;-77
2023/07/28 05:39:34;;;;;;;4.10;2.72;;;21.20;64.70;;;;;;5038728;28;20339;-76
2023/07/28 05:42:00;;;;;;;4.47;3.22;;;21.20;65.40;;;;;;5038560;28;20048;-76
2023/07/28 05:44:26;;;;;;;4.22;2.58;;;21.20;64.70;;;;;;5022567;28;20500;-77
2023/07/28 05:46:52;;;;;;;4.07;3.00;;;21.10;64.70;;;;;;5039078;28;20033;-77
2023/07/28 05:49:18;;;;;;;4.63;3.28;;;21.20;64.70;;;;;;5038517;28;20040;-77
2023/07/28 05:51:44;;;;;;;4.40;3.25;;;21.20;64.70;;;;;;5039274;28;20028;-76
2023/07/28 05:54:15;;;;;;;4.38;2.90;;;21.20;64.80;;;;;;5039559;28;20037;-76
2023/07/28 05:56:41;;;;;;;4.90;3.25;;;21.20;64.80;;;;;;5054926;28;20063;-76
2023/07/28 05:59:07;;;;;;;4.70;3.30;;;21.20;64.80;;;;;;5054954;28;20063;-77
2023/07/28 06:01:33;;;;;;;4.60;3.30;;;21.20;64.80;;;;;;5054929;28;20028;-77
2023/07/28 06:04:25;;;;;;;4.25;3.05;;;21.20;64.80;;;;;;5039102;28;20041;-77
2023/07/28 06:06:55;;;;;;;4.55;2.88;;;21.20;64.80;;;;;;5039692;28;20041;-76
2023/07/28 06:09:21;;;;;;;4.35;2.97;;;21.20;64.90;;;;;;5056132;28;20025;-77
2023/07/28 06:11:46;;;;;;;5.63;3.33;;;21.20;64.80;;;;;;5021761;28;20033;-77
2023/07/28 06:14:12;;;;;;;4.13;2.95;;;21.20;64.80;;;;;;5038853;28;20111;-77
2023/07/28 06:16:38;;;;;;;3.80;2.92;;;21.20;64.90;;;;;;5040827;28;20389;-78
2023/07/28 06:19:04;;;;;;;5.20;3.45;;;21.20;64.80;;;;;;5008637;28;20139;-78
2023/07/28 06:21:31;;;;;;;4.45;3.03;;;21.20;64.80;;;;;;5025480;28;20032;-78
2023/07/28 06:23:57;;;;;;;4.22;2.97;;;21.20;64.80;;;;;;5041253;28;20086;-77
2023/07/28 06:26:23;;;;;;;4.55;3.45;;;21.20;64.80;;;;;;5074736;28;20044;-76
2023/07/28 06:28:49;;;;;;;4.70;3.60;;;21.20;64.70;;;;;;5041146;28;20033;-75
2023/07/28 06:31:14;;;;;;;5.35;3.38;;;21.20;64.70;;;;;;5008320;28;20106;-75
2023/07/28 06:33:40;;;;;;;4.72;3.10;;;21.20;64.70;;;;;;5057613;28;20083;-75
2023/07/28 06:36:06;;;;;;;4.47;3.63;;;21.20;64.70;;;;;;5075779;28;20516;-76
2023/07/28 06:38:32;;;;;;;5.18;3.50;;;21.20;64.70;;;;;;5057937;28;20449;-76
2023/07/28 06:40:58;;;;;;;4.32;3.25;;;21.20;64.70;;;;;;5041947;28;20063;-75
2023/07/28 06:43:24;;;;;;;4.63;3.13;;;21.20;64.70;;;;;;5041068;28;20036;-75
2023/07/28 06:45:51;;;;;;;4.38;3.17;;;21.20;64.70;;;;;;5040995;28;20060;-75
2023/07/28 06:48:17;;;;;;;4.80;3.28;;;21.20;64.70;;;;;;5057633;28;20029;-75
2023/07/28 06:50:43;;;;;;;4.18;3.10;;;21.20;64.70;;;;;;5057270;28;20063;-75
2023/07/28 06:53:09;;;;;;;4.85;3.10;;;21.30;64.70;;;;;;5040684;28;20440;-75
2023/07/28 06:55:35;;;;;;;4.35;3.28;;;21.30;64.70;;;;;;5073826;28;20030;-76
2023/07/28 06:58:03;;;;;;;4.93;3.50;;;21.30;64.80;;;;;;5009279;28;20025;-75
2023/07/28 07:00:29;;;;;;;4.18;3.25;;;21.30;64.70;;;;;;5057885;28;20090;-75
2023/07/28 07:02:55;;;;;;;4.35;3.15;;;21.30;64.70;;;;;;5041017;28;20029;-75
2023/07/28 07:05:21;;;;;;;4.60;3.13;;;21.30;64.70;;;;;;5074419;28;20037;-75
2023/07/28 07:07:46;;;;;;;4.07;2.90;;;21.30;64.70;;;;;;5040686;28;20032;-76
2023/07/28 07:10:12;;;;;;;4.97;3.75;;;21.30;64.70;;;;;;5041101;28;20369;-76
2023/07/28 07:12:38;;;;;;;5.68;3.50;;;21.30;64.70;;;;;;5056718;28;20499;-77
2023/07/28 07:15:05;;;;;;;4.72;3.25;;;21.30;64.70;;;;;;5023973;28;20113;-78
2023/07/28 07:17:32;;;;;;;4.85;3.20;;;21.30;64.70;;;;;;5073419;28;20045;-77
2023/07/28 07:19:58;;;;;;;3.85;2.95;;;21.30;64.70;;;;;;5023942;28;20113;-77
2023/07/28 07:22:23;;;;;;;4.72;3.42;;;21.30;64.70;;;;;;5074830;28;20068;-77
2023/07/28 07:24:49;;;;;;;4.47;3.40;;;21.30;64.80;;;;;;5074042;28;20409;-77
2023/07/28 07:27:15;;;;;;;4.72;3.28;;;21.30;64.80;;;;;;5039928;28;20557;-78
2023/07/28 07:29:40;;;;;;;5.20;3.50;;;21.30;64.70;;;;;;5074057;28;20025;-79
2023/07/28 07:32:07;;;;;;;4.45;3.22;;;21.40;64.80;;;;;;5039372;28;20025;-77
2023/07/28 07:34:34;;;;;;;5.03;3.50;;;21.30;64.70;;;;;;5039777;28;20082;-77
2023/07/28 07:37:00;;;;;;;4.82;3.45;;;21.40;64.80;;;;;;5056655;28;20040;-77
2023/07/28 07:39:25;;;;;;;4.95;3.80;;;21.40;64.70;;;;;;5039530;28;20032;-78
2023/07/28 07:41:51;;;;;;;4.43;3.40;;;21.40;64.70;;;;;;5055767;28;20495;-78
2023/07/28 07:44:17;;;;;;;4.60;3.42;;;21.40;64.70;;;;;;5072438;28;20381;-78
2023/07/28 07:46:42;;;;;;;4.82;3.20;;;21.40;64.70;;;;;;5039582;28;20033;-78
2023/07/28 07:49:08;;;;;;;4.85;3.30;;;21.40;64.70;;;;;;5039311;28;20036;-78
2023/07/28 07:51:34;;;;;;;5.18;3.35;;;21.50;64.70;;;;;;5006421;28;20063;-78
2023/07/28 07:54:03;;;;;;;4.38;3.08;;;21.40;64.70;;;;;;5056118;28;20412;-78
2023/07/28 07:56:29;;;;;;;4.15;3.10;;;21.50;64.70;;;;;;5073600;28;20055;-78
2023/07/28 07:58:55;;;;;;;4.95;3.35;;;21.50;64.70;;;;;;5039060;28;20504;-78
2023/07/28 08:01:20;;;;;;;4.32;3.10;;;21.50;64.70;;;;;;5006477;28;20060;-78
2023/07/28 08:03:47;;;;;;;4.90;3.58;;;21.50;64.70;;;;;;5073687;28;20115;-78
2023/07/28 08:06:13;;;;;;;4.57;3.25;;;21.50;64.70;;;;;;5038933;28;20090;-78
2023/07/28 08:08:39;;;;;;;4.40;3.35;;;21.50;64.60;;;;;;5038799;28;20063;-79
2023/07/28 08:11:05;;;;;;;3.85;2.97;;;21.50;64.60;;;;;;5055517;28;20033;-79
2023/07/28 08:13:31;;;;;;;5.07;3.30;;;21.60;64.70;;;;;;5056261;28;20036;-78
2023/07/28 08:15:57;;;;;;;4.05;3.00;;;21.60;64.60;;;;;;5038809;28;20094;-79
2023/07/28 08:18:22;;;;;;;4.22;3.03;;;21.60;64.60;;;;;;5038804;28;20048;-78
2023/07/28 08:20:48;;;;;;;3.78;2.90;;;21.60;64.60;;;;;;5073041;28;20044;-80
2023/07/28 08:23:14;;;;;;;4.65;3.33;;;21.70;64.60;;;;;;5055024;28;20128;-80
2023/07/28 08:25:40;;;;;;;4.50;3.20;;;21.70;64.60;;;;;;5039121;28;20037;-79
2023/07/28 08:28:06;;;;;;;4.30;3.03;;;21.70;64.60;;;;;;5072255;28;20024;-79
2023/07/28 08:30:32;;;;;;;5.20;3.53;;;21.70;64.60;;;;;;5038808;28;20483;-80
2023/07/28 08:32:58;;;;;;;3.95;2.97;;;21.70;64.60;;;;;;5055422;28;20040;-78
2023/07/28 08:35:24;;;;;;;4.15;3.20;;;21.80;64.60;;;;;;5055836;28;20441;-78
2023/07/28 08:37:49;;;;;;;4.00;3.00;;;21.80;64.60;;;;;;5038731;28;20036;-79
2023/07/28 08:40:16;;;;;;;4.78;3.15;;;21.80;64.60;;;;;;5039411;28;20458;-79
2023/07/28 08:42:41;;;;;;;4.43;3.10;;;21.80;64.60;;;;;;5039530;28;20040;-76
2023/07/28 08:45:08;;;;;;;4.00;3.25;;;21.80;64.60;;;;;;5038799;28;20090;-78
2023/07/28 08:47:34;;;;;;;4.00;3.03;;;21.90;64.60;;;;;;5073416;28;20028;-78
2023/07/28 08:50:01;;;;;;;4.78;3.20;;;21.90;64.60;;;;;;5022893;28;20107;-81
2023/07/28 08:52:27;;;;;;;4.30;3.03;;;21.90;64.50;;;;;;5038742;28;20473;-77
2023/07/28 08:54:53;;;;;;;4.65;3.35;;;21.90;64.50;;;;;;5038687;28;20123;-79
2023/07/28 08:57:19;;;;;;;4.20;3.08;;;21.90;64.50;;;;;;5039533;28;20111;-81
2023/07/28 08:59:48;;;;;;;4.13;3.08;;;22.00;64.50;;;;;;5039190;28;20087;-79
2023/07/28 09:02:19;;;;;;;3.55;2.67;;;22.00;64.50;;;;;;5055579;28;20028;-79
2023/07/28 09:04:46;;;;;;;3.83;2.95;;;22.00;64.50;;;;;;5073721;28;20064;-78
2023/07/28 09:07:12;;;;;;;4.18;3.17;;;22.00;64.40;;;;;;5074671;28;20058;-80
2023/07/28 09:09:38;;;;;;;4.47;3.10;;;22.10;64.50;;;;;;5042613;28;20029;-78
2023/07/28 09:12:04;;;;;;;3.30;2.67;;;22.10;64.50;;;;;;5059186;28;20101;-77
2023/07/28 09:14:30;;;;;;;4.82;3.08;;;22.10;64.50;;;;;;5043312;28;20040;-76
2023/07/28 09:17:05;;;;;;;4.35;3.10;;;22.10;64.50;;;;;;5042914;28;20445;-77
2023/07/28 09:19:31;;;;;;;4.25;2.83;;;22.10;65.10;;;;;;5059374;28;20082;-77
2023/07/28 09:21:59;;;;;;;4.80;3.10;;;22.20;64.50;;;;;;5042167;28;20033;-78
2023/07/28 09:24:34;;;;;;;3.85;3.17;;;22.20;64.50;;;;;;5042519;28;20453;-77
2023/07/28 09:27:01;;;;;;;4.50;3.17;;;22.20;64.50;;;;;;5076845;28;20037;-78
2023/07/28 09:29:27;;;;;;;3.53;2.75;;;22.20;64.40;;;;;;5058825;28;20032;-77
2023/07/28 09:32:02;;;;;;;4.28;2.95;;;22.30;64.50;;;;;;5058776;28;20119;-77
2023/07/28 09:34:28;;;;;;;4.05;2.97;;;22.30;64.50;;;;;;5075276;28;20052;-78
2023/07/28 09:36:55;;;;;;;3.88;2.90;;;22.30;64.40;;;;;;5076911;28;20083;-79
2023/07/28 09:39:21;;;;;;;4.05;3.17;;;22.30;64.40;;;;;;5076868;28;20044;-79
2023/07/28 09:41:48;;;;;;;4.40;3.13;;;22.30;64.40;;;;;;5059216;28;20043;-78
2023/07/28 09:44:15;;;;;;;3.60;2.85;;;22.30;64.30;;;;;;5058687;28;20041;-79
2023/07/28 09:46:57;;;;;;;4.10;3.15;;;22.40;64.40;;;;;;5076447;28;20032;-77
2023/07/28 09:49:38;;;;;;;4.57;3.30;;;22.40;64.50;;;;;;5058749;28;20032;-77
2023/07/28 09:52:08;;;;;;;4.25;3.03;;;22.40;64.40;;;;;;5058311;28;20028;-79
2023/07/28 09:54:40;;;;;;;4.20;2.83;;;22.40;64.30;;;;;;5076014;28;20107;-79
2023/07/28 09:57:13;;;;;;;3.72;2.80;;;22.50;64.30;;;;;;5058284;28;20036;-78
2023/07/28 09:59:40;;;;;;;3.70;2.75;;;22.50;64.30;;;;;;5042406;28;20039;-78
2023/07/28 10:02:07;;;;;;;3.88;2.75;;;22.50;64.20;;;;;;5058448;28;20036;-78
2023/07/28 10:04:33;;;;;;;3.88;3.00;;;22.60;64.20;;;;;;5058161;28;20115;-79
2023/07/28 10:07:00;;;;;;;4.28;3.00;;;22.60;64.20;;;;;;5041541;28;20056;-78
2023/07/28 10:09:30;;;;;;;3.70;2.88;;;22.60;64.10;;;;;;5076389;28;20036;-78
2023/07/28 10:11:56;;;;;;;4.03;2.90;;;22.70;64.10;;;;;;5058047;28;20052;-79
2023/07/28 10:14:31;;;;;;;3.70;2.72;;;22.70;64.10;;;;;;5058096;28;20036;-78
2023/07/28 10:17:01;;;;;;;3.38;2.60;;;22.70;64.10;;;;;;5041288;28;20102;-78
2023/07/28 10:19:39;;;;;;;3.63;2.67;;;22.80;64.10;;;;;;5075177;28;20101;-78
2023/07/28 10:22:10;;;;;;;4.05;2.78;;;22.80;64.00;;;;;;5075562;28;20028;-78
2023/07/28 10:24:53;;;;;;;3.83;2.72;;;22.90;63.90;;;;;;5057611;28;20473;-78
2023/07/28 10:27:51;;;;;;;3.80;2.80;;;23.00;63.90;;;;;;5075924;28;20028;-78
2023/07/28 10:30:19;;;;;;;3.40;2.67;;;23.00;63.80;;;;;;5014383;28;20045;-78
2023/07/28 10:32:50;;;;;;;4.18;2.95;;;23.10;63.60;;;;;;5041287;28;20037;-78
2023/07/28 10:35:21;;;;;;;3.63;2.63;;;23.20;63.70;;;;;;5057808;28;20369;-78
2023/07/28 10:37:47;;;;;;;3.95;2.83;;;23.20;63.60;;;;;;5058529;28;20036;-77
2023/07/28 10:40:35;;;;;;;4.45;2.92;;;23.30;63.50;;;;;;5057585;28;20059;-78
2023/07/28 10:43:06;;;;;;;3.75;2.85;;;23.40;63.60;;;;;;5057578;28;20491;-80
2023/07/28 10:45:33;;;;;;;3.92;2.97;;;23.40;63.40;;;;;;5041324;28;20020;-82
2023/07/28 10:48:00;;;;;;;4.15;2.88;;;23.50;63.40;;;;;;5024507;28;20051;-80
2023/07/28 10:50:30;;;;;;;3.72;2.83;;;23.60;63.30;;;;;;5040516;28;20116;-81
2023/07/28 10:52:57;;;;;;;3.70;2.72;;;23.60;63.30;;;;;;5024875;28;20043;-80
2023/07/28 10:55:25;;;;;;;3.90;2.85;;;23.70;63.30;;;;;;5057745;28;20081;-78
2023/07/28 10:57:53;;;;;;;3.75;2.85;;;23.80;63.20;;;;;;5074915;28;20027;-79
2023/07/28 11:00:21;;;;;;;3.90;2.97;;;23.80;63.20;;;;;;5057220;28;20024;-79
2023/07/28 11:02:54;;;;;;;4.03;2.70;;;23.90;63.20;;;;;;5057181;28;20056;-80
2023/07/28 11:05:24;;;;;;;4.00;2.83;;;24.00;63.20;;;;;;5074811;28;20115;-80
2023/07/28 11:07:54;;;;;;;3.72;2.70;;;24.00;63.10;;;;;;5057167;28;20401;-80
2023/07/28 11:10:20;;;;;;;3.22;2.67;;;24.10;63.20;;;;;;5056972;28;20032;-80
2023/07/28 11:12:48;;;;;;;3.60;2.88;;;24.10;63.10;;;;;;5040392;28;20033;-80
2023/07/28 11:15:16;;;;;;;4.05;3.05;;;24.20;63.00;;;;;;5074455;28;20056;-79
2023/07/28 11:17:49;;;;;;;3.63;3.00;;;24.20;63.00;;;;;;5074135;28;20515;-79
2023/07/28 11:20:21;;;;;;;3.13;2.67;;;24.30;63.10;;;;;;5040660;28;20025;-79
2023/07/28 11:22:52;;;;;;;4.38;3.17;;;24.30;63.10;;;;;;5075209;28;20039;-79
2023/07/28 11:25:18;;;;;;;5.70;3.00;;;24.40;63.10;;;;;;5056751;28;20079;-80
2023/07/28 11:27:46;;;;;;;3.58;2.80;;;24.40;63.10;;;;;;5056858;28;20115;-80
2023/07/28 11:30:13;;;;;;;3.55;2.70;;;24.40;63.10;;;;;;5055645;28;20029;-80
2023/07/28 11:32:39;;;;;;;3.33;2.70;;;24.50;63.20;;;;;;5040238;28;20040;-80
2023/07/28 11:35:09;;;;;;;3.70;2.88;;;24.50;63.20;;;;;;5023047;28;20452;-80
2023/07/28 11:37:37;;;;;;;3.85;3.00;;;24.60;63.30;;;;;;5057230;28;20025;-80
2023/07/28 11:40:08;;;;;;;4.57;3.50;;;24.60;63.20;;;;;;5056058;28;20064;-80
2023/07/28 11:42:44;;;;;;;4.05;2.92;;;24.60;63.20;;;;;;5040603;28;20419;-79
2023/07/28 11:45:12;;;;;;;3.60;2.75;;;24.70;63.20;;;;;;5056275;28;20024;-79
2023/07/28 11:47:38;;;;;;;4.13;3.20;;;24.80;63.20;;;;;;5039885;28;20029;-80
2023/07/28 11:50:04;;;;;;;3.75;2.80;;;24.80;63.20;;;;;;5056297;28;20128;-80
2023/07/28 11:52:34;;;;;;;3.42;2.80;;;24.80;63.10;;;;;;5073798;28;20428;-80
2023/07/28 11:55:02;;;;;;;3.83;2.83;;;24.90;63.20;;;;;;5056149;28;20024;-80
2023/07/28 11:57:32;;;;;;;3.63;2.70;;;24.90;63.10;;;;;;5056025;28;20032;-80
2023/07/28 11:59:59;;;;;;;3.50;2.65;;;25.00;63.10;;;;;;5056384;28;20115;-79
2023/07/28 12:02:29;;;;;;;3.95;2.80;;;25.00;63.10;;;;;;5055845;28;20032;-80
2023/07/28 12:04:57;;;;;;;3.70;2.90;;;25.00;63.00;;;;;;5039323;28;20055;-80
2023/07/28 12:07:33;;;;;;;3.42;2.70;;;25.00;63.00;;;;;;5024279;28;20040;-80
2023/07/28 12:10:08;;;;;;;4.10;3.08;;;25.10;63.10;;;;;;5056110;28;20531;-80
2023/07/28 12:12:45;;;;;;;3.53;2.83;;;25.10;63.00;;;;;;5039847;28;20032;-80
2023/07/28 12:15:28;;;;;;;3.33;2.55;;;25.20;63.10;;;;;;5056100;28;20032;-80
2023/07/28 12:18:14;;;;;;;4.10;2.95;;;25.20;63.00;;;;;;5039453;28;20126;-80
2023/07/28 12:20:47;;;;;;;3.03;2.40;;;25.30;63.00;;;;;;5074170;28;20075;-80
2023/07/28 12:23:19;;;;;;;3.85;3.00;;;25.40;63.00;;;;;;5055629;28;20029;-80
2023/07/28 12:25:44;;;;;;;3.45;2.60;;;25.40;62.90;;;;;;5055704;28;20041;-79
2023/07/28 12:28:11;;;;;;;3.50;2.80;;;25.40;62.80;;;;;;5039281;28;20041;-79
2023/07/28 12:30:37;;;;;;;3.22;2.70;;;25.40;62.70;;;;;;5073892;28;20035;-81
2023/07/28 12:33:04;;;;;;;3.00;2.40;;;25.50;62.80;;;;;;5039148;28;20388;-81
2023/07/28 12:35:34;;;;;;;4.05;2.67;;;25.50;62.70;;;;;;5055641;28;20037;-81
2023/07/28 12:38:00;;;;;;;2.53;2.33;;;25.50;62.60;;;;;;5038939;28;20533;-81
2023/07/28 12:40:30;;;;;;;3.45;2.63;;;25.60;62.60;;;;;;5055655;28;20032;-79
2023/07/28 12:42:57;;;;;;;3.08;2.42;;;25.70;62.70;;;;;;5055139;28;20033;-78
2023/07/28 12:45:25;;;;;;;3.30;2.70;;;25.70;62.70;;;;;;5055175;28;20366;-80
2023/07/28 12:47:55;;;;;;;3.45;2.42;;;25.70;62.60;;;;;;5038711;28;20038;-81
2023/07/28 12:50:22;;;;;;;3.03;2.47;;;25.80;62.60;;;;;;5072676;28;20029;-82
2023/07/28 12:52:48;;;;;;;2.80;2.20;;;25.80;62.80;;;;;;5055326;28;20028;-79